createdAt,value
2023-05-19T00:01:24.853Z,0
2023-05-19T00:03:04.598Z,0
2023-05-19T00:04:44.387Z,0
2023-05-19T00:06:24.133Z,0
2023-05-19T00:08:03.913Z,0
2023-05-19T00:09:43.682Z,0
2023-05-19T00:11:23.440Z,0
2023-05-19T00:13:03.219Z,0
2023-05-19T00:14:43.002Z,0
2023-05-19T00:16:22.737Z,0
2023-05-19T00:18:02.519Z,0
2023-05-19T00:19:42.280Z,0
2023-05-19T00:21:22.054Z,0
2023-05-19T00:23:01.837Z,0
2023-05-19T00:24:41.593Z,0
2023-05-19T00:26:21.353Z,0
2023-05-19T00:28:01.123Z,0
2023-05-19T00:29:40.885Z,0
2023-05-19T00:31:20.677Z,0
2023-05-19T00:33:00.406Z,0
2023-05-19T00:34:40.178Z,0
2023-05-19T00:36:19.950Z,0
2023-05-19T00:37:59.734Z,0
2023-05-19T00:39:39.492Z,0
2023-05-19T00:41:19.249Z,0
2023-05-19T00:42:59.018Z,0
2023-05-19T00:44:38.801Z,0
2023-05-19T00:46:18.566Z,0
2023-05-19T00:47:58.317Z,0
2023-05-19T00:49:38.106Z,0
2023-05-19T00:51:17.861Z,0
2023-05-19T00:52:57.627Z,0
2023-05-19T00:54:37.394Z,0
2023-05-19T00:56:17.166Z,0
2023-05-19T00:57:56.929Z,0
2023-05-19T00:59:36.721Z,0
2023-05-19T01:01:16.470Z,0
2023-05-19T01:02:56.232Z,0
2023-05-19T01:04:36.010Z,0
2023-05-19T01:06:15.773Z,0
2023-05-19T01:07:55.531Z,0
2023-05-19T01:09:35.298Z,0
2023-05-19T01:11:15.082Z,0
2023-05-19T01:12:54.830Z,0
2023-05-19T01:14:34.596Z,0
2023-05-19T01:16:14.373Z,0
2023-05-19T01:17:54.138Z,0
2023-05-19T01:19:33.902Z,0
2023-05-19T01:21:13.684Z,0
2023-05-19T01:22:53.447Z,0
2023-05-19T01:24:33.245Z,0
2023-05-19T01:26:12.980Z,0
2023-05-19T01:27:52.729Z,0
2023-05-19T01:29:32.510Z,0
2023-05-19T01:31:12.274Z,0
2023-05-19T01:32:52.075Z,0
2023-05-19T01:34:31.818Z,0
2023-05-19T01:36:11.583Z,0
2023-05-19T01:37:51.346Z,0
2023-05-19T01:39:31.125Z,0
2023-05-19T01:41:10.916Z,0
2023-05-19T01:42:50.660Z,0
2023-05-19T01:44:30.416Z,0
2023-05-19T01:46:10.189Z,0
2023-05-19T01:47:49.959Z,0
2023-05-19T01:49:29.728Z,0
2023-05-19T01:51:09.487Z,0
2023-05-19T01:52:49.256Z,0
2023-05-19T01:54:29.016Z,0
2023-05-19T01:56:08.799Z,0
2023-05-19T01:57:48.568Z,0
2023-05-19T01:59:28.324Z,0
2023-05-19T02:01:08.093Z,0
2023-05-19T02:02:47.865Z,0
2023-05-19T02:04:27.625Z,0
2023-05-19T02:06:07.396Z,0
2023-05-19T02:07:47.175Z,0
2023-05-19T02:09:26.939Z,0
2023-05-19T02:11:06.715Z,0
2023-05-19T02:12:46.466Z,0
2023-05-19T02:14:26.237Z,0
2023-05-19T02:16:05.986Z,0
2023-05-19T02:17:45.772Z,0
2023-05-19T02:19:25.537Z,0
2023-05-19T02:21:05.308Z,0
2023-05-19T02:22:45.085Z,0
2023-05-19T02:24:24.837Z,0
2023-05-19T02:26:04.610Z,0
2023-05-19T02:27:44.376Z,0
2023-05-19T02:29:24.136Z,0
2023-05-19T02:31:03.905Z,0
2023-05-19T02:32:43.671Z,0
2023-05-19T02:34:23.448Z,0
2023-05-19T02:36:03.203Z,0
2023-05-19T02:37:42.972Z,0
2023-05-19T02:39:22.803Z,0
2023-05-19T02:41:02.503Z,0
2023-05-19T02:42:42.280Z,0
2023-05-19T02:44:22.045Z,0
2023-05-19T02:46:01.816Z,0
2023-05-19T02:47:41.583Z,0
2023-05-19T02:49:21.356Z,0
2023-05-19T02:51:01.124Z,0
2023-05-19T02:52:40.869Z,0
2023-05-19T02:54:20.647Z,0
2023-05-19T02:56:00.408Z,0
2023-05-19T02:57:40.191Z,0
2023-05-19T02:59:19.946Z,0
2023-05-19T03:00:59.720Z,0
2023-05-19T03:02:39.487Z,0
2023-05-19T03:04:19.260Z,0
2023-05-19T03:05:59.017Z,0
2023-05-19T03:07:38.783Z,0
2023-05-19T03:09:18.558Z,0
2023-05-19T03:10:58.337Z,0
2023-05-19T03:12:38.085Z,0
2023-05-19T03:14:17.862Z,0
2023-05-19T03:15:57.639Z,0
2023-05-19T03:17:37.388Z,0
2023-05-19T03:19:17.159Z,0
2023-05-19T03:20:56.926Z,0.51
2023-05-19T03:22:36.688Z,0.77
2023-05-19T03:24:16.458Z,0.77
2023-05-19T03:25:56.236Z,0.77
2023-05-19T03:27:36.005Z,1.53
2023-05-19T03:29:15.776Z,1.54
2023-05-19T03:30:55.538Z,2.83
2023-05-19T03:32:35.304Z,2.31
2023-05-19T03:34:15.073Z,3.09
2023-05-19T03:35:54.843Z,3.35
2023-05-19T03:37:34.604Z,3.87
2023-05-19T03:39:14.387Z,5.16
2023-05-19T03:40:54.162Z,5.68
2023-05-19T03:42:33.914Z,6.2
2023-05-19T03:44:13.682Z,6.21
2023-05-19T03:45:53.468Z,10.4
2023-05-19T03:47:33.234Z,7.53
2023-05-19T03:49:13.030Z,7.8
2023-05-19T03:50:52.776Z,9.12
2023-05-19T03:52:32.559Z,8.85
2023-05-19T03:54:12.312Z,9.92
2023-05-19T03:55:52.090Z,10.2
2023-05-19T03:57:31.863Z,10.74
2023-05-19T03:59:11.633Z,11.29
2023-05-19T04:00:51.485Z,11.31
2023-05-19T04:02:31.164Z,11.85
2023-05-19T04:04:10.944Z,12.39
2023-05-19T04:05:50.762Z,12.69
2023-05-19T04:07:30.490Z,13.5
2023-05-19T04:09:10.250Z,13.79
2023-05-19T04:10:50.014Z,14.35
2023-05-19T04:12:29.797Z,14.1
2023-05-19T04:14:09.565Z,14.67
2023-05-19T04:15:49.329Z,14.69
2023-05-19T04:17:29.099Z,15.25
2023-05-19T04:19:08.918Z,14.15
2023-05-19T04:20:48.639Z,15.85
2023-05-19T04:22:28.404Z,15.62
2023-05-19T04:24:08.203Z,15.92
2023-05-19T04:25:47.953Z,16.48
2023-05-19T04:27:27.737Z,16.23
2023-05-19T04:29:07.498Z,16.54
2023-05-19T04:30:47.268Z,16.83
2023-05-19T04:32:27.035Z,17.42
2023-05-19T04:34:06.815Z,17.99
2023-05-19T04:35:46.583Z,18.31
2023-05-19T04:37:26.358Z,18.61
2023-05-19T04:39:06.136Z,18.37
2023-05-19T04:40:45.884Z,18.67
2023-05-19T04:42:25.654Z,18.43
2023-05-19T04:44:05.442Z,18.73
2023-05-19T04:45:45.204Z,32.8
2023-05-19T04:47:24.965Z,47.57
2023-05-19T04:49:04.738Z,49.59
2023-05-19T04:50:44.513Z,49.91
2023-05-19T04:52:24.289Z,50.17
2023-05-19T04:54:04.056Z,45.27
2023-05-19T04:55:43.823Z,42.63
2023-05-19T04:57:23.596Z,42.61
2023-05-19T04:59:03.357Z,41.14
2023-05-19T05:00:43.133Z,39.07
2023-05-19T05:02:22.906Z,37.91
2023-05-19T05:04:02.663Z,38.5
2023-05-19T05:05:42.438Z,37.03
2023-05-19T05:07:22.216Z,37.61
2023-05-19T05:09:01.995Z,37.59
2023-05-19T05:10:41.751Z,35.8
2023-05-19T05:12:21.538Z,36.14
2023-05-19T05:14:01.294Z,37.32
2023-05-19T05:15:41.059Z,35.84
2023-05-19T05:17:20.829Z,35.84
2023-05-19T05:19:00.593Z,36.13
2023-05-19T05:20:40.382Z,37
2023-05-19T05:22:20.139Z,35.83
2023-05-19T05:23:59.914Z,36.43
2023-05-19T05:25:39.681Z,36.73
2023-05-19T05:27:19.448Z,35.84
2023-05-19T05:28:59.230Z,36.11
2023-05-19T05:30:38.996Z,35.53
2023-05-19T05:32:18.797Z,35.83
2023-05-19T05:33:58.538Z,35.53
2023-05-19T05:35:38.300Z,36.11
2023-05-19T05:37:18.081Z,36.77
2023-05-19T05:38:57.848Z,36.12
2023-05-19T05:40:37.641Z,36.71
2023-05-19T05:42:17.411Z,35.52
2023-05-19T05:43:57.157Z,35.81
2023-05-19T05:45:36.929Z,36.11
2023-05-19T05:47:16.699Z,36.11
2023-05-19T05:48:56.479Z,36.71
2023-05-19T05:50:36.234Z,36.99
2023-05-19T05:52:16.035Z,36.98
2023-05-19T05:53:55.790Z,36.12
2023-05-19T05:55:35.557Z,36.71
2023-05-19T05:57:15.338Z,36.7
2023-05-19T05:58:55.154Z,36.4
2023-05-19T06:00:34.874Z,36.08
2023-05-19T06:02:14.638Z,35.79
2023-05-19T06:03:54.405Z,36.09
2023-05-19T06:05:34.174Z,35.23
2023-05-19T06:07:13.949Z,35.23
2023-05-19T06:08:53.717Z,35.53
2023-05-19T06:10:33.480Z,34.91
2023-05-19T06:12:13.306Z,34.64
2023-05-19T06:13:53.059Z,34.63
2023-05-19T06:15:32.801Z,35.23
2023-05-19T06:17:12.570Z,35.52
2023-05-19T06:18:52.349Z,34.62
2023-05-19T06:20:32.099Z,34.31
2023-05-19T06:22:11.868Z,35.2
2023-05-19T06:23:51.660Z,34.03
2023-05-19T06:25:31.424Z,34.03
2023-05-19T06:27:11.192Z,34.9
2023-05-19T06:28:50.969Z,34
2023-05-19T06:30:30.738Z,35.5
2023-05-19T06:32:10.526Z,34.91
2023-05-19T06:33:50.280Z,34.9
2023-05-19T06:35:30.039Z,35.2
2023-05-19T06:37:09.823Z,33.75
2023-05-19T06:38:49.601Z,34.59
2023-05-19T06:40:29.345Z,34.04
2023-05-19T06:42:09.144Z,33.43
2023-05-19T06:43:48.896Z,33.14
2023-05-19T06:45:28.675Z,33.99
2023-05-19T06:47:08.439Z,33.41
2023-05-19T06:48:48.216Z,34.89
2023-05-19T06:50:27.981Z,32.83
2023-05-19T06:52:07.735Z,33.41
2023-05-19T06:53:47.535Z,33.99
2023-05-19T06:55:27.279Z,32.33
2023-05-19T06:57:07.054Z,33.99
2023-05-19T06:58:46.832Z,34
2023-05-19T07:00:26.612Z,34.59
2023-05-19T07:02:06.429Z,34.29
2023-05-19T07:03:46.138Z,34
2023-05-19T07:05:25.911Z,33.41
2023-05-19T07:07:05.689Z,33.98
2023-05-19T07:08:45.447Z,33.68
2023-05-19T07:10:25.229Z,33.09
2023-05-19T07:12:05.084Z,32.82
2023-05-19T07:13:44.765Z,33.12
2023-05-19T07:15:24.546Z,33.41
2023-05-19T07:17:04.300Z,33.39
2023-05-19T07:18:44.079Z,33.97
2023-05-19T07:20:23.917Z,33.37
2023-05-19T07:22:03.602Z,33.98
2023-05-19T07:23:43.387Z,33.12
2023-05-19T07:25:23.162Z,33.98
2023-05-19T07:27:02.926Z,32.5
2023-05-19T07:28:42.688Z,33.68
2023-05-19T07:30:22.460Z,33.37
2023-05-19T07:32:02.233Z,33.09
2023-05-19T07:33:42.028Z,32.5
2023-05-19T07:35:21.779Z,33.66
2023-05-19T07:37:01.546Z,32.79
2023-05-19T07:38:41.304Z,33.08
2023-05-19T07:40:21.077Z,32.48
2023-05-19T07:42:00.850Z,32.78
2023-05-19T07:43:40.623Z,33.36
2023-05-19T07:45:20.428Z,32.48
2023-05-19T07:47:00.172Z,32.41
2023-05-19T07:48:39.950Z,33.64
2023-05-19T07:50:19.768Z,32.18
2023-05-19T07:51:59.507Z,33.36
2023-05-19T07:53:39.243Z,0
2023-05-19T07:55:19.008Z,0
2023-05-19T07:56:58.813Z,0
2023-05-19T07:58:38.558Z,0
2023-05-19T08:00:18.348Z,0
2023-05-19T08:01:58.083Z,0
2023-05-19T08:03:37.884Z,0
2023-05-19T08:05:17.639Z,0
2023-05-19T08:06:57.524Z,4.11
2023-05-19T08:08:37.209Z,5.49
2023-05-19T08:10:16.938Z,6.03
2023-05-19T08:11:56.729Z,4.66
2023-05-19T08:13:36.499Z,3.01
2023-05-19T08:15:16.253Z,6.31
2023-05-19T08:16:56.026Z,6.86
2023-05-19T08:18:35.898Z,7.13
2023-05-19T08:20:15.757Z,7.4
2023-05-19T08:21:55.342Z,6.58
2023-05-19T08:23:35.116Z,6.86
2023-05-19T08:25:14.885Z,7.4
2023-05-19T08:26:54.642Z,7.12
2023-05-19T08:28:34.427Z,7.67
2023-05-19T08:30:14.228Z,7.4
2023-05-19T08:31:54.044Z,7.4
2023-05-19T08:33:33.766Z,7.13
2023-05-19T08:35:13.580Z,7.67
2023-05-19T08:36:53.329Z,7.67
2023-05-19T08:38:33.040Z,7.39
2023-05-19T08:40:12.822Z,8.22
2023-05-19T08:41:52.585Z,7.67
2023-05-19T08:43:32.366Z,7.94
2023-05-19T08:45:12.183Z,7.4
2023-05-19T08:46:51.900Z,7.94
2023-05-19T08:48:31.668Z,7.12
2023-05-19T08:50:11.473Z,7.94
2023-05-19T08:51:51.198Z,7.67
2023-05-19T08:53:30.974Z,6.57
2023-05-19T08:55:10.848Z,7.12
2023-05-19T08:56:50.638Z,6.84
2023-05-19T08:58:30.472Z,7.94
2023-05-19T09:00:10.218Z,8.21
2023-05-19T09:01:49.830Z,6.29
2023-05-19T09:03:29.809Z,7.11
2023-05-19T09:05:09.375Z,7.07
2023-05-19T09:06:49.309Z,6.84
2023-05-19T09:08:29.084Z,7.66
2023-05-19T09:10:08.873Z,6.57
2023-05-19T09:11:48.638Z,7.39
2023-05-19T09:13:28.400Z,7.11
2023-05-19T09:15:08.143Z,6.84
2023-05-19T09:16:47.755Z,6.29
2023-05-19T09:18:27.688Z,7.66
2023-05-19T09:20:07.438Z,7.11
2023-05-19T09:21:47.084Z,6.29
2023-05-19T09:23:27.080Z,7.11
2023-05-19T09:25:06.627Z,7.11
2023-05-19T09:26:46.507Z,6.29
2023-05-19T09:28:26.286Z,6.83
2023-05-19T09:30:06.048Z,7.11
2023-05-19T09:31:45.819Z,7.38
2023-05-19T09:33:25.674Z,7.11
2023-05-19T09:35:05.369Z,6.01
2023-05-19T09:36:45.188Z,7.38
2023-05-19T09:38:24.978Z,7.11
2023-05-19T09:40:04.686Z,7.66
2023-05-19T09:41:44.513Z,6.56
2023-05-19T09:43:24.268Z,6.28
2023-05-19T09:45:03.971Z,6.55
2023-05-19T09:46:43.808Z,7.1
2023-05-19T09:48:23.562Z,7.11
2023-05-19T09:50:03.255Z,6.55
2023-05-19T09:51:43.141Z,7.38
2023-05-19T09:53:22.929Z,7.1
2023-05-19T09:55:02.635Z,7.1
2023-05-19T09:56:42.401Z,5.73
2023-05-19T09:58:22.123Z,6.55
2023-05-19T10:00:02.013Z,7.1
2023-05-19T10:01:41.549Z,7.1
2023-05-19T10:03:21.338Z,7.1
2023-05-19T10:05:01.189Z,6.01
2023-05-19T10:06:41.102Z,7.1
2023-05-19T10:08:20.769Z,6.28
2023-05-19T10:10:00.621Z,6.01
2023-05-19T10:11:40.281Z,6.01
2023-05-19T10:13:20.120Z,6.83
2023-05-19T10:14:59.848Z,6.55
2023-05-19T10:16:39.747Z,6.83
2023-05-19T10:18:19.423Z,6.01
2023-05-19T10:19:59.151Z,7.1
2023-05-19T10:21:38.982Z,6.82
2023-05-19T10:23:18.668Z,5.98
2023-05-19T10:24:58.595Z,6.01
2023-05-19T10:26:38.242Z,6.55
2023-05-19T10:28:18.128Z,6.01
2023-05-19T10:29:57.840Z,6.28
2023-05-19T10:31:37.430Z,6.28
2023-05-19T10:33:17.205Z,5.46
2023-05-19T10:34:56.971Z,6.27
2023-05-19T10:36:36.934Z,6.27
2023-05-19T10:38:16.693Z,6.82
2023-05-19T10:39:56.394Z,6.55
2023-05-19T10:41:36.237Z,6.54
2023-05-19T10:43:15.985Z,6
2023-05-19T10:44:55.781Z,6.55
2023-05-19T10:46:35.356Z,7.09
2023-05-19T10:48:15.296Z,5.73
2023-05-19T10:49:55.056Z,10.9
2023-05-19T10:51:34.700Z,6.27
2023-05-19T10:53:14.572Z,6.27
2023-05-19T10:54:54.219Z,5.73
2023-05-19T10:56:34.169Z,6.27
2023-05-19T10:58:13.987Z,6.27
2023-05-19T10:59:53.721Z,5.73
2023-05-19T11:01:33.369Z,7.09
2023-05-19T11:03:13.268Z,6.27
2023-05-19T11:04:52.915Z,6.27
2023-05-19T11:06:32.828Z,6
2023-05-19T11:08:12.367Z,5.45
2023-05-19T11:09:52.358Z,5.18
2023-05-19T11:11:32.089Z,6.82
2023-05-19T11:13:11.875Z,6.27
2023-05-19T11:14:51.458Z,5.99
2023-05-19T11:16:31.405Z,6.54
2023-05-19T11:18:11.137Z,6.82
2023-05-19T11:19:50.814Z,6.27
2023-05-19T11:21:30.678Z,6.54
2023-05-19T11:23:10.487Z,7.09
2023-05-19T11:24:50.200Z,6.54
2023-05-19T11:26:29.853Z,5.45
2023-05-19T11:28:09.626Z,6.27
2023-05-19T11:29:49.510Z,6.27
2023-05-19T11:31:29.330Z,5.99
2023-05-19T11:33:08.950Z,7.09
2023-05-19T11:34:48.705Z,5.99
2023-05-19T11:36:28.585Z,6.81
2023-05-19T11:38:08.335Z,6.27
2023-05-19T11:39:48.210Z,6.27
2023-05-19T11:41:27.844Z,7.04
2023-05-19T11:43:07.727Z,6
2023-05-19T11:44:47.331Z,6.54
2023-05-19T11:46:27.342Z,5.72
2023-05-19T11:48:06.889Z,5.72
2023-05-19T11:49:46.770Z,5.72
2023-05-19T11:51:26.558Z,5.99
2023-05-19T11:53:06.318Z,6.54
2023-05-19T11:54:46.115Z,6.26
2023-05-19T11:56:25.926Z,5.45
2023-05-19T11:58:05.507Z,5.99
2023-05-19T11:59:45.273Z,5.45
2023-05-19T12:01:25.162Z,5.99
2023-05-19T12:03:04.999Z,5.72
2023-05-19T12:04:44.826Z,6.54
2023-05-19T12:06:24.462Z,6.26
2023-05-19T12:08:04.230Z,5.72
2023-05-19T12:09:44.062Z,5.72
2023-05-19T12:11:23.842Z,5.45
2023-05-19T12:13:03.620Z,6.81
2023-05-19T12:14:43.333Z,5.45
2023-05-19T12:16:23.193Z,6.54
2023-05-19T12:18:02.891Z,6.26
2023-05-19T12:19:42.608Z,5.72
2023-05-19T12:21:22.458Z,5.45
2023-05-19T12:23:02.240Z,6.26
2023-05-19T12:24:42.079Z,6.26
2023-05-19T12:26:21.770Z,6.26
2023-05-19T12:28:01.539Z,5.99
2023-05-19T12:29:41.323Z,5.99
2023-05-19T12:31:21.187Z,5.99
2023-05-19T12:33:00.849Z,6.26
2023-05-19T12:34:40.611Z,5.72
2023-05-19T12:36:20.209Z,5.45
2023-05-19T12:38:00.125Z,6.26
2023-05-19T12:39:39.861Z,6.26
2023-05-19T12:41:19.675Z,6.54
2023-05-19T12:42:59.532Z,5.45
2023-05-19T12:44:39.213Z,5.17
2023-05-19T12:46:18.923Z,6.53
2023-05-19T12:47:58.663Z,6.26
2023-05-19T12:49:38.510Z,5.72
2023-05-19T12:51:18.306Z,5.72
2023-05-19T12:52:58.071Z,5.45
2023-05-19T12:54:37.721Z,6.53
2023-05-19T12:56:17.643Z,5.72
2023-05-19T12:57:57.430Z,5.99
2023-05-19T12:59:37.290Z,5.15
2023-05-19T13:01:16.972Z,6.26
2023-05-19T13:02:56.708Z,5.72
2023-05-19T13:04:36.316Z,5.72
2023-05-19T13:06:16.092Z,6.26
2023-05-19T13:07:55.858Z,5.72
2023-05-19T13:09:35.628Z,6.26
2023-05-19T13:11:15.401Z,5.72
2023-05-19T13:12:55.162Z,5.99
2023-05-19T13:14:34.952Z,5.98
2023-05-19T13:16:14.716Z,5.17
2023-05-19T13:17:54.472Z,5.71
2023-05-19T13:19:34.337Z,5.44
2023-05-19T13:21:14.032Z,5.72
2023-05-19T13:22:53.941Z,5.71
2023-05-19T13:24:33.704Z,5.71
2023-05-19T13:26:13.351Z,10.61
2023-05-19T13:27:53.243Z,6.26
2023-05-19T13:29:33.136Z,6.53
2023-05-19T13:31:12.836Z,5.44
2023-05-19T13:32:52.664Z,5.99
2023-05-19T13:34:32.183Z,6.26
2023-05-19T13:36:12.034Z,6.8
2023-05-19T13:37:51.890Z,6.26
2023-05-19T13:39:31.673Z,6.26
2023-05-19T13:41:11.267Z,5.71
2023-05-19T13:42:51.171Z,5.17
2023-05-19T13:44:30.796Z,5.44
2023-05-19T13:46:10.664Z,5.71
2023-05-19T13:47:50.377Z,5.99
2023-05-19T13:49:30.125Z,6.53
2023-05-19T13:51:09.884Z,5.71
2023-05-19T13:52:49.852Z,5.71
2023-05-19T13:54:29.428Z,5.17
2023-05-19T13:56:09.345Z,6.26
2023-05-19T13:57:48.994Z,5.71
2023-05-19T13:59:28.807Z,5.98
2023-05-19T14:01:08.509Z,5.17
2023-05-19T14:02:48.584Z,5.99
2023-05-19T14:04:28.112Z,5.71
2023-05-19T14:06:07.932Z,5.44
2023-05-19T14:07:47.664Z,5.44
2023-05-19T14:09:27.553Z,4.9
2023-05-19T14:11:07.272Z,5.44
2023-05-19T14:12:47.004Z,5.17
2023-05-19T14:14:26.806Z,4.89
2023-05-19T14:16:06.447Z,5.44
2023-05-19T14:17:46.391Z,5.67
2023-05-19T14:19:25.987Z,5.71
2023-05-19T14:21:05.822Z,4.89
2023-05-19T14:22:45.535Z,5.44
2023-05-19T14:24:25.519Z,5.17
2023-05-19T14:26:05.251Z,5.16
2023-05-19T14:27:45.021Z,5.16
2023-05-19T14:29:24.609Z,5.16
2023-05-19T14:31:04.540Z,5.17
2023-05-19T14:32:44.288Z,6.25
2023-05-19T14:34:23.933Z,4.89
2023-05-19T14:36:03.878Z,6.26
2023-05-19T14:37:43.644Z,5.71
2023-05-19T14:39:23.369Z,6.25
2023-05-19T14:41:03.208Z,5.44
2023-05-19T14:42:42.933Z,5.71
2023-05-19T14:44:22.665Z,8.16
2023-05-19T14:46:02.557Z,4.89
2023-05-19T14:47:42.196Z,5.17
2023-05-19T14:49:22.040Z,5.71
2023-05-19T14:51:01.780Z,5.71
2023-05-19T14:52:41.580Z,5.16
2023-05-19T14:54:21.268Z,4.62
2023-05-19T14:56:00.963Z,5.44
2023-05-19T14:57:40.854Z,5.71
2023-05-19T14:59:20.494Z,4.62
2023-05-19T15:01:00.399Z,5.44
2023-05-19T15:02:40.006Z,5.44
2023-05-19T15:04:19.964Z,5.44
2023-05-19T15:05:59.662Z,4.89
2023-05-19T15:07:39.446Z,5.98
2023-05-19T15:09:19.300Z,5.97
2023-05-19T15:10:59.094Z,5.44
2023-05-19T15:12:38.783Z,5.98
2023-05-19T15:14:18.482Z,5.16
2023-05-19T15:15:58.328Z,5.98
2023-05-19T15:17:38.008Z,5.44
2023-05-19T15:19:17.803Z,4.89
2023-05-19T15:20:57.644Z,5.44
2023-05-19T15:22:37.324Z,5.16
2023-05-19T15:24:17.057Z,5.71
2023-05-19T15:25:56.875Z,5.16
2023-05-19T15:27:36.702Z,5.7
2023-05-19T15:29:16.421Z,5.44
2023-05-19T15:30:56.296Z,5.44
2023-05-19T15:32:36.080Z,5.16
2023-05-19T15:34:15.868Z,5.44
2023-05-19T15:35:55.628Z,6.21
2023-05-19T15:37:35.390Z,5.16
2023-05-19T15:39:14.984Z,5.16
2023-05-19T15:40:54.752Z,5.44
2023-05-19T15:42:34.602Z,5.44
2023-05-19T15:44:14.480Z,5.98
2023-05-19T15:45:54.164Z,5.71
2023-05-19T15:47:33.878Z,5.7
2023-05-19T15:49:13.856Z,5.44
2023-05-19T15:50:53.481Z,5.98
2023-05-19T15:52:33.124Z,5.98
2023-05-19T15:54:12.912Z,5.44
2023-05-19T15:55:52.681Z,4.89
2023-05-19T15:57:32.437Z,4.62
2023-05-19T15:59:12.216Z,5.98
2023-05-19T16:00:51.988Z,5.98
2023-05-19T16:02:31.766Z,3.53
2023-05-19T16:04:11.620Z,5.98
2023-05-19T16:05:51.440Z,5.16
2023-05-19T16:07:31.164Z,4.89
2023-05-19T16:09:11.055Z,5.44
2023-05-19T16:10:50.716Z,5.44
2023-05-19T16:12:30.551Z,4.89
2023-05-19T16:14:10.399Z,4.89
2023-05-19T16:15:49.993Z,5.71
2023-05-19T16:17:29.730Z,4.89
2023-05-19T16:19:09.658Z,5.43
2023-05-19T16:20:49.265Z,5.16
2023-05-19T16:22:29.135Z,4.89
2023-05-19T16:24:08.834Z,4.62
2023-05-19T16:25:48.681Z,5.16
2023-05-19T16:27:28.408Z,4.89
2023-05-19T16:29:08.287Z,4.62
2023-05-19T16:30:47.916Z,5.71
2023-05-19T16:32:27.754Z,4.62
2023-05-19T16:34:07.559Z,5.16
2023-05-19T16:35:47.245Z,5.71
2023-05-19T16:37:27.037Z,5.71
2023-05-19T16:39:06.789Z,5.44
2023-05-19T16:40:46.556Z,4.89
2023-05-19T16:42:26.493Z,5.7
2023-05-19T16:44:06.193Z,5.98
2023-05-19T16:45:45.908Z,5.44
2023-05-19T16:47:25.701Z,4.89
2023-05-19T16:49:05.445Z,4.89
2023-05-19T16:50:45.272Z,4.89
2023-05-19T16:52:25.002Z,5.44
2023-05-19T16:54:04.806Z,5.67
2023-05-19T16:55:44.520Z,4.89
2023-05-19T16:57:24.353Z,5.44
2023-05-19T16:59:04.145Z,5.98
2023-05-19T17:00:43.724Z,5.44
2023-05-19T17:02:23.494Z,5.16
2023-05-19T17:04:03.266Z,5.44
2023-05-19T17:05:43.048Z,5.71
2023-05-19T17:07:22.812Z,5.16
2023-05-19T17:09:02.578Z,5.44
2023-05-19T17:10:42.360Z,5.16
2023-05-19T17:12:22.124Z,6.25
2023-05-19T17:14:01.884Z,5.71
2023-05-19T17:15:41.658Z,5.16
2023-05-19T17:17:21.431Z,5.44
2023-05-19T17:19:01.215Z,5.43
2023-05-19T17:20:40.965Z,9.22
2023-05-19T17:22:20.817Z,5.71
2023-05-19T17:24:00.510Z,5.16
2023-05-19T17:25:40.335Z,5.98
2023-05-19T17:27:20.056Z,6.53
2023-05-19T17:28:59.815Z,5.16
2023-05-19T17:30:39.769Z,5.71
2023-05-19T17:32:19.488Z,5.17
2023-05-19T17:33:59.147Z,5.16
2023-05-19T17:35:39.056Z,5.44
2023-05-19T17:37:18.834Z,5.71
2023-05-19T17:38:58.638Z,4.89
2023-05-19T17:40:38.237Z,4.89
2023-05-19T17:42:18.115Z,5.98
2023-05-19T17:43:57.924Z,5.17
2023-05-19T17:45:37.621Z,5.16
2023-05-19T17:47:17.512Z,5.44
2023-05-19T17:48:57.226Z,5.44
2023-05-19T17:50:36.842Z,5.16
2023-05-19T17:52:16.742Z,5.44
2023-05-19T17:53:56.545Z,5.44
2023-05-19T17:55:36.282Z,5.16
2023-05-19T17:57:16.147Z,4.62
2023-05-19T17:58:55.825Z,4.89
2023-05-19T18:00:35.584Z,5.71
2023-05-19T18:02:15.366Z,5.44
2023-05-19T18:03:55.068Z,5.99
2023-05-19T18:05:34.934Z,5.17
2023-05-19T18:07:14.715Z,5.44
2023-05-19T18:08:54.475Z,6.25
2023-05-19T18:10:34.194Z,4.9
2023-05-19T18:12:14.143Z,4.06
2023-05-19T18:13:53.775Z,5.99
2023-05-19T18:15:33.566Z,5.71
2023-05-19T18:17:13.316Z,4.9
2023-05-19T18:18:53.112Z,5.44
2023-05-19T18:20:32.840Z,5.44
2023-05-19T18:22:12.712Z,4.62
2023-05-19T18:23:52.468Z,5.99
2023-05-19T18:25:32.109Z,5.71
2023-05-19T18:27:11.782Z,5.71
2023-05-19T18:28:51.672Z,5.17
2023-05-19T18:30:31.415Z,6.26
2023-05-19T18:32:11.204Z,5.71
2023-05-19T18:33:50.946Z,5.44
2023-05-19T18:35:30.791Z,5.71
2023-05-19T18:37:10.597Z,4.89
2023-05-19T18:38:50.348Z,4.89
2023-05-19T18:40:29.954Z,5.44
2023-05-19T18:42:09.865Z,5.99
2023-05-19T18:43:49.665Z,4.9
2023-05-19T18:45:29.441Z,5.44
2023-05-19T18:47:09.236Z,4.62
2023-05-19T18:48:48.810Z,2.98
2023-05-19T18:50:28.620Z,1.35
2023-05-19T18:52:08.352Z,1.08
2023-05-19T18:53:48.121Z,0.27
2023-05-19T18:55:28.020Z,0
2023-05-19T18:57:07.713Z,0
2023-05-19T18:58:47.544Z,0
2023-05-19T19:00:27.174Z,0
2023-05-19T19:02:07.098Z,0
2023-05-19T19:03:46.883Z,0
2023-05-19T19:05:26.572Z,0
2023-05-19T19:07:06.352Z,0
2023-05-19T19:08:46.182Z,0
2023-05-19T19:10:25.905Z,0
2023-05-19T19:12:05.710Z,0
2023-05-19T19:13:45.363Z,0
2023-05-19T19:15:25.221Z,0
2023-05-19T19:17:04.891Z,0
2023-05-19T19:18:44.656Z,0
2023-05-19T19:20:24.481Z,0
2023-05-19T19:22:04.341Z,0
2023-05-19T19:23:44.130Z,0
2023-05-19T19:25:23.727Z,0
2023-05-19T19:27:03.544Z,0
2023-05-19T19:28:43.430Z,0
2023-05-19T19:30:23.144Z,0
2023-05-19T19:32:02.873Z,0
2023-05-19T19:33:42.613Z,0
2023-05-19T19:35:22.457Z,0
2023-05-19T19:37:02.174Z,0
2023-05-19T19:38:41.964Z,0
2023-05-19T19:40:21.655Z,0
2023-05-19T19:42:01.492Z,0
2023-05-19T19:43:41.166Z,0
2023-05-19T19:45:20.910Z,0
2023-05-19T19:47:00.831Z,0
2023-05-19T19:48:40.566Z,0
2023-05-19T19:50:20.345Z,0
2023-05-19T19:52:00.116Z,0
2023-05-19T19:53:39.823Z,0
2023-05-19T19:55:19.616Z,0
2023-05-19T19:56:59.459Z,0
2023-05-19T19:58:39.251Z,0
2023-05-19T20:00:18.884Z,0
2023-05-19T20:01:58.685Z,0
2023-05-19T20:03:38.407Z,0
2023-05-19T20:05:18.288Z,0
2023-05-19T20:06:57.897Z,0
2023-05-19T20:08:37.746Z,0
2023-05-19T20:10:17.474Z,0
2023-05-19T20:11:57.284Z,0
2023-05-19T20:13:37.121Z,0
2023-05-19T20:15:16.970Z,0
2023-05-19T20:16:56.614Z,0
2023-05-19T20:18:36.247Z,0
2023-05-19T20:20:16.160Z,0
2023-05-19T20:21:55.920Z,0
2023-05-19T20:23:35.781Z,0
2023-05-19T20:25:15.324Z,0
2023-05-19T20:26:55.099Z,0
2023-05-19T20:28:34.885Z,0
2023-05-19T20:30:14.637Z,0
2023-05-19T20:31:54.415Z,0
2023-05-19T20:33:34.337Z,0
2023-05-19T20:35:14.032Z,0
2023-05-19T20:36:53.860Z,0
2023-05-19T20:38:33.464Z,0
2023-05-19T20:40:13.417Z,0
2023-05-19T20:41:53.113Z,0
2023-05-19T20:43:32.966Z,0
2023-05-19T20:45:12.681Z,0
2023-05-19T20:46:52.360Z,0
2023-05-19T20:48:32.068Z,0
2023-05-19T20:50:11.858Z,0
2023-05-19T20:51:51.615Z,0
2023-05-19T20:53:31.381Z,0
2023-05-19T20:55:11.150Z,0
2023-05-19T20:56:50.912Z,0
2023-05-19T20:58:30.693Z,0
2023-05-19T21:00:10.460Z,0
2023-05-19T21:01:50.210Z,0
2023-05-19T21:03:29.981Z,0
2023-05-19T21:05:09.757Z,0
2023-05-19T21:06:49.525Z,0
2023-05-19T21:08:29.282Z,0
2023-05-19T21:10:09.050Z,0
2023-05-19T21:11:48.865Z,0
2023-05-19T21:13:28.629Z,0
2023-05-19T21:15:08.406Z,0
2023-05-19T21:16:48.227Z,0
2023-05-19T21:18:28.072Z,0
2023-05-19T21:20:07.661Z,0
2023-05-19T21:21:47.564Z,0
2023-05-19T21:23:27.344Z,0
2023-05-19T21:25:07.119Z,0
2023-05-19T21:26:46.833Z,0
2023-05-19T21:28:26.699Z,0
2023-05-19T21:30:06.386Z,0
2023-05-19T21:31:46.281Z,0
2023-05-19T21:33:25.982Z,0
2023-05-19T21:35:05.689Z,0
2023-05-19T21:36:45.458Z,0
2023-05-19T21:38:25.324Z,0
2023-05-19T21:40:04.863Z,0
2023-05-19T21:41:44.676Z,0
2023-05-19T21:43:24.622Z,0
2023-05-19T21:45:04.189Z,0
2023-05-19T21:46:44.057Z,0
2023-05-19T21:48:23.739Z,0
2023-05-19T21:50:03.717Z,0
2023-05-19T21:51:43.461Z,0
2023-05-19T21:53:23.185Z,0
2023-05-19T21:55:02.941Z,0
2023-05-19T21:56:42.709Z,0
2023-05-19T21:58:22.499Z,0
2023-05-19T22:00:02.130Z,0
2023-05-19T22:01:41.947Z,0
2023-05-19T22:03:21.757Z,0
2023-05-19T22:05:01.519Z,0
2023-05-19T22:06:41.158Z,0
2023-05-19T22:08:20.925Z,0
2023-05-19T22:10:00.879Z,0
2023-05-19T22:11:40.454Z,0
2023-05-19T22:13:20.367Z,0
2023-05-19T22:15:00.161Z,0
2023-05-19T22:16:39.926Z,0
2023-05-19T22:18:19.755Z,0
2023-05-19T22:19:59.539Z,0
2023-05-19T22:21:39.232Z,0
2023-05-19T22:23:19.056Z,0
2023-05-19T22:24:58.821Z,0
2023-05-19T22:26:38.358Z,0
2023-05-19T22:28:18.131Z,0
2023-05-19T22:29:58.053Z,0
2023-05-19T22:31:37.792Z,0
2023-05-19T22:33:17.596Z,0
2023-05-19T22:34:57.307Z,0
2023-05-19T22:36:37.170Z,0
2023-05-19T22:38:16.752Z,0
2023-05-19T22:39:56.683Z,0
2023-05-19T22:41:36.378Z,0
2023-05-19T22:43:16.068Z,0
2023-05-19T22:44:55.808Z,0
2023-05-19T22:46:35.674Z,0
2023-05-19T22:48:15.389Z,0